Time;durP1;ratioP1;P1;durP2;ratioP2;P2;SDS_P1;SDS_P2;PMS_P1;PMS_P2;Temp;Humidity;BMP_temperature;BMP_pressure;BME280_temperature;BME280_humidity;BME280_pressure;Samples;Min_cycle;Max_cycle;Signal;HPM_P1;HPM_P2
2022/04/09 00:02:29;;;;;;;3.78;3.08;;;23.80;41.10;;;;;;6140741;28;80995;-62
2022/04/09 00:05:30;;;;;;;3.20;2.30;;;23.80;41.20;;;;;;6134488;28;80095;-62
2022/04/09 00:08:31;;;;;;;4.85;3.10;;;23.80;41.10;;;;;;6142587;28;80655;-63
2022/04/09 00:11:31;;;;;;;4.70;3.08;;;23.80;41.00;;;;;;6162311;28;80223;-62
2022/04/09 00:14:32;;;;;;;4.57;3.08;;;23.70;41.00;;;;;;6162278;28;80550;-62
2022/04/09 00:17:33;;;;;;;4.25;2.97;;;23.70;41.00;;;;;;6144044;28;82986;-62
2022/04/09 00:20:33;;;;;;;5.10;3.42;;;23.70;41.10;;;;;;6161815;28;82129;-63
2022/04/09 00:23:34;;;;;;;5.28;2.95;;;23.70;41.00;;;;;;6162159;28;80515;-62
2022/04/09 00:26:34;;;;;;;4.78;3.58;;;23.70;41.00;;;;;;6162198;28;80966;-62
2022/04/09 00:29:35;;;;;;;5.70;3.58;;;23.70;41.00;;;;;;6161685;28;80702;-65
2022/04/09 00:32:36;;;;;;;6.47;3.85;;;23.70;41.00;;;;;;6156885;28;80304;-63
2022/04/09 00:35:37;;;;;;;6.70;3.80;;;23.70;41.00;;;;;;6131990;28;82442;-63
2022/04/09 00:38:37;;;;;;;4.32;3.10;;;23.70;41.10;;;;;;6155555;28;81972;-63
2022/04/09 00:41:38;;;;;;;5.72;3.70;;;23.70;41.10;;;;;;6155587;28;82532;-63
2022/04/09 00:44:38;;;;;;;6.10;3.55;;;23.70;41.10;;;;;;6161176;28;81520;-63
2022/04/09 00:47:39;;;;;;;6.13;3.70;;;23.70;41.50;;;;;;6127838;28;82191;-63
2022/04/09 00:50:40;;;;;;;5.85;3.88;;;23.70;41.20;;;;;;6164898;28;80891;-63
2022/04/09 00:53:41;;;;;;;5.30;3.58;;;23.70;41.20;;;;;;6186034;28;80798;-62
2022/04/09 00:56:42;;;;;;;5.43;3.40;;;23.70;41.10;;;;;;6149506;28;81531;-62
2022/04/09 00:59:43;;;;;;;3.60;2.85;;;23.70;41.20;;;;;;6143113;28;81445;-63
2022/04/09 01:02:44;;;;;;;5.70;3.35;;;23.70;41.20;;;;;;6143671;28;81313;-63
2022/04/09 01:05:44;;;;;;;4.55;3.25;;;23.70;41.30;;;;;;6159579;28;83703;-63
2022/04/09 01:08:45;;;;;;;4.68;3.47;;;23.70;41.30;;;;;;6161604;28;80549;-63
2022/04/09 01:11:46;;;;;;;8.00;3.45;;;23.70;41.30;;;;;;6143084;28;83053;-64
2022/04/09 01:14:47;;;;;;;4.15;2.97;;;23.80;41.40;;;;;;6139008;28;83130;-63
2022/04/09 01:17:47;;;;;;;6.70;3.60;;;23.70;41.30;;;;;;6140949;28;81932;-64
2022/04/09 01:20:48;;;;;;;4.80;3.20;;;23.70;41.30;;;;;;6142411;28;82176;-63
2022/04/09 01:23:49;;;;;;;5.55;3.17;;;23.70;41.30;;;;;;6161257;28;84874;-62
2022/04/09 01:26:49;;;;;;;3.63;2.50;;;23.70;41.40;;;;;;6161148;28;80461;-63
2022/04/09 01:29:58;;;;;;;5.28;3.20;;;23.70;41.40;;;;;;6156602;28;87455;-62
2022/04/09 01:32:58;;;;;;;6.20;3.50;;;23.70;41.40;;;;;;6142629;28;83232;-63
2022/04/09 01:36:00;;;;;;;5.03;3.28;;;23.70;41.40;;;;;;6143206;28;81641;-62
2022/04/09 01:39:01;;;;;;;5.40;3.40;;;23.70;41.40;;;;;;6135044;28;83035;-63
2022/04/09 01:42:05;;;;;;;5.22;3.38;;;23.70;41.40;;;;;;6142696;28;83117;-62
2022/04/09 01:45:06;;;;;;;5.60;3.33;;;23.70;41.40;;;;;;6142996;28;81441;-62
2022/04/09 01:48:08;;;;;;;5.90;3.60;;;23.80;41.50;;;;;;6142956;28;83585;-62
2022/04/09 01:51:09;;;;;;;4.20;3.20;;;23.70;41.50;;;;;;6143149;28;82249;-62
2022/04/09 01:54:09;;;;;;;7.28;3.78;;;23.70;41.50;;;;;;6143120;28;81403;-63
2022/04/09 01:57:10;;;;;;;5.60;3.10;;;23.70;41.50;;;;;;6142431;28;82598;-63
2022/04/09 02:00:11;;;;;;;5.25;3.60;;;23.70;41.40;;;;;;6161268;28;80594;-63
2022/04/09 02:03:14;;;;;;;4.50;3.20;;;23.70;41.40;;;;;;6160359;28;80609;-63
2022/04/09 02:06:16;;;;;;;3.65;3.20;;;23.70;41.40;;;;;;6142193;28;82612;-63
2022/04/09 02:09:17;;;;;;;4.25;2.90;;;23.70;41.40;;;;;;6160764;28;80481;-63
2022/04/09 02:12:18;;;;;;;5.82;2.95;;;23.70;41.50;;;;;;6134267;28;83460;-63
2022/04/09 02:15:19;;;;;;;4.22;2.90;;;23.70;41.50;;;;;;6142646;28;81673;-63
2022/04/09 02:18:19;;;;;;;4.15;3.55;;;23.70;41.50;;;;;;6141240;28;83256;-63
2022/04/09 02:21:20;;;;;;;5.45;3.40;;;23.70;41.50;;;;;;6160288;28;80246;-62
2022/04/09 02:24:21;;;;;;;4.82;3.20;;;23.70;41.50;;;;;;6158469;28;81022;-62
2022/04/09 02:27:21;;;;;;;4.65;3.20;;;23.70;41.50;;;;;;6157921;28;83538;-62
2022/04/09 02:30:22;;;;;;;5.63;3.70;;;23.70;41.50;;;;;;6141993;28;82170;-62
2022/04/09 02:33:27;;;;;;;3.67;2.75;;;23.70;41.50;;;;;;6141821;28;83624;-62
2022/04/09 02:36:30;;;;;;;3.85;2.70;;;23.70;41.60;;;;;;6142099;28;87610;-62
2022/04/09 02:39:31;;;;;;;5.68;3.33;;;23.70;41.50;;;;;;6141314;28;83695;-62
2022/04/09 02:42:32;;;;;;;4.18;2.92;;;23.70;41.50;;;;;;6141076;28;81361;-63
2022/04/09 02:45:33;;;;;;;5.15;3.55;;;23.70;41.50;;;;;;6141758;28;83543;-62
2022/04/09 02:48:35;;;;;;;4.95;2.92;;;23.70;41.50;;;;;;6159302;28;80515;-67
2022/04/09 02:51:36;;;;;;;5.47;3.50;;;23.70;41.60;;;;;;6156135;28;81773;-66
2022/04/09 02:54:37;;;;;;;6.82;3.30;;;23.70;42.00;;;;;;6157778;28;83054;-66
2022/04/09 02:57:38;;;;;;;6.47;4.05;;;23.70;41.50;;;;;;6159274;28;80715;-66
2022/04/09 03:00:40;;;;;;;5.10;3.50;;;23.70;41.60;;;;;;6141959;28;82971;-65
2022/04/09 03:03:41;;;;;;;5.68;3.45;;;23.70;41.80;;;;;;6141468;28;82244;-66
2022/04/09 03:06:41;;;;;;;7.25;3.40;;;23.70;41.80;;;;;;6159402;28;80727;-65
2022/04/09 03:09:42;;;;;;;5.70;3.20;;;23.70;41.80;;;;;;6141014;28;83144;-66
2022/04/09 03:12:43;;;;;;;4.88;3.25;;;23.70;41.80;;;;;;6140762;28;83231;-66
2022/04/09 03:15:43;;;;;;;5.50;3.58;;;23.70;41.80;;;;;;6141128;28;81445;-65
2022/04/09 03:18:44;;;;;;;4.70;3.67;;;23.70;41.70;;;;;;6140981;28;82707;-65
2022/04/09 03:21:46;;;;;;;4.78;3.33;;;23.70;41.60;;;;;;6125397;28;81347;-66
2022/04/09 03:24:47;;;;;;;7.00;4.43;;;23.80;41.50;;;;;;6158587;28;80621;-65
2022/04/09 03:27:49;;;;;;;7.50;4.53;;;23.80;41.40;;;;;;6141077;28;82803;-65
2022/04/09 03:30:50;;;;;;;5.88;3.90;;;23.80;41.20;;;;;;6141292;28;82280;-66
2022/04/09 03:33:52;;;;;;;6.15;4.18;;;23.90;41.20;;;;;;6141122;28;81611;-66
2022/04/09 03:36:55;;;;;;;5.55;3.75;;;23.90;41.20;;;;;;6141174;28;82867;-65
2022/04/09 03:39:56;;;;;;;6.75;4.40;;;23.90;41.10;;;;;;6136875;28;82695;-65
2022/04/09 03:42:56;;;;;;;8.18;4.22;;;23.90;41.10;;;;;;6141636;28;83208;-67
2022/04/09 03:45:57;;;;;;;7.70;4.63;;;23.90;41.00;;;;;;6144499;28;82869;-67
2022/04/09 03:48:58;;;;;;;7.20;4.18;;;23.90;41.10;;;;;;6144644;28;83211;-66
2022/04/09 03:51:59;;;;;;;8.23;4.32;;;24.00;41.20;;;;;;6163022;28;81732;-66
2022/04/09 03:55:01;;;;;;;8.10;4.63;;;24.00;41.10;;;;;;6144521;28;83154;-67
2022/04/09 03:58:02;;;;;;;6.00;4.40;;;24.00;41.20;;;;;;6144585;28;82680;-68
2022/04/09 04:01:02;;;;;;;7.05;4.28;;;24.00;41.20;;;;;;6150048;28;83105;-66
2022/04/09 04:04:03;;;;;;;8.48;4.80;;;24.00;41.30;;;;;;6155123;28;83560;-66
2022/04/09 04:07:05;;;;;;;7.82;4.50;;;24.00;41.30;;;;;;6127347;28;82671;-66
2022/04/09 04:10:09;;;;;;;7.18;4.72;;;24.10;41.40;;;;;;6135824;28;81726;-67
2022/04/09 04:13:11;;;;;;;8.70;4.75;;;24.10;41.30;;;;;;6120218;28;81671;-66
2022/04/09 04:16:11;;;;;;;6.70;4.45;;;24.10;41.30;;;;;;6143958;28;83116;-67
2022/04/09 04:19:16;;;;;;;5.95;4.35;;;24.10;41.30;;;;;;6160542;28;83339;-66
2022/04/09 04:22:18;;;;;;;8.73;5.25;;;24.10;41.40;;;;;;6134295;28;81290;-68
2022/04/09 04:25:19;;;;;;;6.07;4.47;;;24.10;41.40;;;;;;6144658;28;83788;-71
2022/04/09 04:28:20;;;;;;;6.35;4.45;;;24.10;41.50;;;;;;6143638;28;82498;-67
2022/04/09 04:31:21;;;;;;;5.72;3.78;;;24.10;41.70;;;;;;6144315;28;82521;-67
2022/04/09 04:34:22;;;;;;;8.55;4.90;;;24.10;41.60;;;;;;6161227;28;82170;-63
2022/04/09 04:37:23;;;;;;;9.13;4.70;;;24.10;41.90;;;;;;6143078;28;83873;-65
2022/04/09 04:40:25;;;;;;;9.13;5.00;;;24.10;41.80;;;;;;6144019;28;82604;-64
2022/04/09 04:43:30;;;;;;;11.05;4.72;;;24.10;41.90;;;;;;6143664;28;83431;-74
2022/04/09 04:46:34;;;;;;;7.18;4.82;;;24.10;42.00;;;;;;6143654;28;82485;-65
2022/04/09 04:49:35;;;;;;;7.13;4.82;;;24.10;42.00;;;;;;6121640;28;82436;-65
2022/04/09 04:52:39;;;;;;;8.23;5.00;;;24.10;41.80;;;;;;6136218;28;83280;-65
2022/04/09 04:55:39;;;;;;;7.50;4.18;;;24.10;42.50;;;;;;6122980;28;83340;-66
2022/04/09 04:58:41;;;;;;;9.18;4.65;;;24.10;41.80;;;;;;6125500;28;81571;-63
2022/04/09 05:01:42;;;;;;;7.85;5.05;;;24.10;42.00;;;;;;6138843;28;80729;-65
2022/04/09 05:04:43;;;;;;;6.70;4.63;;;24.10;42.60;;;;;;6122293;28;83653;-65
2022/04/09 05:07:45;;;;;;;8.13;4.78;;;24.10;42.60;;;;;;6131229;28;83131;-65
2022/04/09 05:10:46;;;;;;;7.55;4.95;;;24.10;43.00;;;;;;6136616;28;83370;-65
2022/04/09 05:13:49;;;;;;;7.05;4.93;;;24.10;42.50;;;;;;6151384;28;83177;-71
2022/04/09 05:16:51;;;;;;;10.13;4.30;;;24.10;42.40;;;;;;6141203;28;81898;-65
2022/04/09 05:19:51;;;;;;;6.65;4.20;;;24.10;42.60;;;;;;6141256;28;81512;-64
2022/04/09 05:22:52;;;;;;;6.25;4.35;;;24.10;42.70;;;;;;6139515;28;83518;-69
2022/04/09 05:25:53;;;;;;;6.30;4.40;;;24.20;42.70;;;;;;6136423;28;83251;-66
2022/04/09 05:28:54;;;;;;;10.57;5.07;;;24.20;42.70;;;;;;6152289;28;82784;-65
2022/04/09 05:31:59;;;;;;;11.65;4.32;;;24.20;42.90;;;;;;6141509;28;81921;-65
2022/04/09 05:35:00;;;;;;;8.60;4.60;;;24.10;42.60;;;;;;6139793;28;83651;-66
2022/04/09 05:38:03;;;;;;;10.13;4.97;;;24.20;42.50;;;;;;6127344;28;83603;-65
2022/04/09 05:41:06;;;;;;;7.00;4.53;;;24.20;42.70;;;;;;6155912;28;82699;-65
2022/04/09 05:44:07;;;;;;;9.25;5.03;;;24.20;43.20;;;;;;6142439;28;83711;-65
2022/04/09 05:47:08;;;;;;;8.75;5.18;;;24.20;43.50;;;;;;6143020;28;82168;-65
2022/04/09 05:50:09;;;;;;;10.75;6.05;;;24.10;43.90;;;;;;6180479;28;83259;-64
2022/04/09 05:53:11;;;;;;;10.35;6.30;;;24.10;43.90;;;;;;6181526;28;80504;-64
2022/04/09 05:56:12;;;;;;;8.35;5.35;;;24.10;44.60;;;;;;6142398;28;82888;-65
2022/04/09 05:59:16;;;;;;;13.23;6.15;;;24.10;44.60;;;;;;6142123;28;82828;-65
2022/04/09 06:02:17;;;;;;;12.95;5.82;;;24.10;44.50;;;;;;6141728;28;83402;-65
2022/04/09 06:05:18;;;;;;;7.93;5.20;;;24.10;44.50;;;;;;6141731;28;83332;-64
2022/04/09 06:08:22;;;;;;;9.70;4.85;;;24.10;45.10;;;;;;6141938;28;81883;-65
2022/04/09 06:11:23;;;;;;;12.60;5.15;;;24.10;45.30;;;;;;6138559;28;82644;-67
2022/04/09 06:14:26;;;;;;;10.02;5.18;;;24.10;45.10;;;;;;6110853;28;83753;-65
2022/04/09 06:17:31;;;;;;;7.70;4.63;;;24.20;45.00;;;;;;6141615;28;82666;-67
2022/04/09 06:20:31;;;;;;;7.95;4.40;;;24.20;44.70;;;;;;6140313;28;81517;-66
2022/04/09 06:23:32;;;;;;;9.50;4.40;;;24.20;44.60;;;;;;6141851;28;83252;-66
2022/04/09 06:26:33;;;;;;;6.97;4.32;;;24.20;44.30;;;;;;6159492;28;80480;-66
2022/04/09 06:29:35;;;;;;;5.60;4.15;;;24.20;44.10;;;;;;6126178;28;82867;-66
2022/04/09 06:32:38;;;;;;;8.32;4.35;;;24.20;44.00;;;;;;6141565;28;81979;-65
2022/04/09 06:35:39;;;;;;;9.73;3.80;;;24.20;43.90;;;;;;6141460;28;82753;-66
2022/04/09 06:38:43;;;;;;;6.57;3.90;;;24.20;43.90;;;;;;6151541;28;82303;-68
2022/04/09 06:41:53;;;;;;;7.32;3.60;;;24.20;43.90;;;;;;6142065;28;83063;-67
2022/04/09 06:45:05;;;;;;;7.35;3.40;;;24.20;43.80;;;;;;6141439;28;87878;-67
2022/04/09 06:48:23;;;;;;;7.22;3.63;;;24.20;43.70;;;;;;6149286;28;83207;-67
2022/04/09 06:51:44;;;;;;;6.05;3.30;;;24.20;44.00;;;;;;6132574;28;83465;-67
2022/04/09 06:55:03;;;;;;;4.65;2.67;;;24.20;44.30;;;;;;6140066;28;82913;-64
2022/04/09 06:58:05;;;;;;;8.32;2.95;;;24.30;45.10;;;;;;6141662;28;82961;-65
2022/04/09 07:01:09;;;;;;;4.95;3.22;;;24.30;44.70;;;;;;6141107;28;83163;-66
2022/04/09 07:04:13;;;;;;;5.90;3.10;;;24.30;44.20;;;;;;6141427;28;83229;-74
2022/04/09 07:07:14;;;;;;;4.53;2.47;;;24.30;43.90;;;;;;6159670;28;81494;-69
2022/04/09 07:10:15;;;;;;;4.22;2.30;;;24.20;43.60;;;;;;6148687;28;80348;-68
2022/04/09 07:13:15;;;;;;;3.38;2.40;;;24.20;43.50;;;;;;6141234;28;81568;-67
2022/04/09 07:16:16;;;;;;;3.58;2.15;;;24.20;43.50;;;;;;6163888;28;80458;-65
2022/04/09 07:19:17;;;;;;;2.40;2.13;;;24.20;43.70;;;;;;6163785;28;80857;-63
2022/04/09 07:22:17;;;;;;;4.53;2.42;;;24.10;43.60;;;;;;6163698;28;80411;-65
2022/04/09 07:25:18;;;;;;;4.13;2.30;;;24.20;43.30;;;;;;6142823;28;80459;-65
2022/04/09 07:28:18;;;;;;;3.22;1.85;;;24.10;43.10;;;;;;6162826;28;81884;-65
2022/04/09 07:31:19;;;;;;;2.78;2.00;;;24.10;42.90;;;;;;6163298;28;81233;-65
2022/04/09 07:34:19;;;;;;;4.32;2.42;;;24.10;42.90;;;;;;6161832;28;81525;-67
2022/04/09 07:37:20;;;;;;;4.35;2.03;;;24.10;43.00;;;;;;6145707;28;81359;-74
2022/04/09 07:40:20;;;;;;;2.83;2.38;;;24.10;43.10;;;;;;6159647;28;80500;-67
2022/04/09 07:43:21;;;;;;;1.95;1.67;;;24.10;42.90;;;;;;6163339;28;80544;-77
2022/04/09 07:46:22;;;;;;;3.40;1.90;;;24.10;42.70;;;;;;6162747;28;80959;-75
2022/04/09 07:49:22;;;;;;;7.47;1.98;;;24.10;42.80;;;;;;6162337;28;81594;-73
2022/04/09 07:52:23;;;;;;;3.20;2.00;;;24.20;42.80;;;;;;6161900;28;81827;-69
2022/04/09 07:55:23;;;;;;;6.38;1.90;;;24.10;42.70;;;;;;6156672;28;80723;-71
2022/04/09 07:58:24;;;;;;;3.95;1.60;;;24.20;42.60;;;;;;6159770;28;81788;-72
2022/04/09 08:01:25;;;;;;;7.38;2.17;;;24.20;42.60;;;;;;6162641;28;80977;-77
2022/04/09 08:04:25;;;;;;;4.57;2.03;;;24.20;42.70;;;;;;6163547;28;80779;-77
2022/04/09 08:07:26;;;;;;;2.10;1.52;;;24.10;42.70;;;;;;6161737;28;80902;-67
2022/04/09 08:10:26;;;;;;;4.00;2.15;;;24.10;42.90;;;;;;6162066;28;81872;-73
2022/04/09 08:13:27;;;;;;;4.35;2.55;;;24.10;42.80;;;;;;6161309;28;81082;-67
2022/04/09 08:16:27;;;;;;;4.70;1.73;;;24.10;42.80;;;;;;6158015;28;81395;-67
2022/04/09 08:19:29;;;;;;;4.78;1.90;;;24.10;43.30;;;;;;6159804;28;80759;-66
2022/04/09 08:22:31;;;;;;;3.47;1.60;;;24.20;43.10;;;;;;6160291;28;81485;-71
2022/04/09 08:25:31;;;;;;;6.97;2.00;;;24.10;43.30;;;;;;6160054;28;80571;-75
2022/04/09 08:28:36;;;;;;;2.75;1.92;;;24.10;43.00;;;;;;6144092;28;81447;-77
2022/04/09 08:31:36;;;;;;;17.88;2.20;;;24.10;42.90;;;;;;6161329;28;80404;-71
2022/04/09 08:34:37;;;;;;;5.03;2.10;;;24.10;42.70;;;;;;6161844;28;81568;-75
2022/04/09 08:37:38;;;;;;;6.65;2.05;;;24.10;42.50;;;;;;6118824;28;81701;-72
2022/04/09 08:40:38;;;;;;;7.40;2.47;;;24.10;42.40;;;;;;6139191;28;80565;-74
2022/04/09 08:43:39;;;;;;;9.70;3.03;;;24.10;42.50;;;;;;6155649;28;82199;-68
2022/04/09 08:46:40;;;;;;;10.80;3.20;;;24.00;43.20;;;;;;6161175;28;80515;-68
2022/04/09 08:49:40;;;;;;;9.05;3.28;;;24.00;44.60;;;;;;6157804;28;80556;-67
2022/04/09 08:52:41;;;;;;;14.85;3.47;;;24.00;43.70;;;;;;6145359;28;81874;-67
2022/04/09 08:55:44;;;;;;;35.83;14.57;;;24.00;44.10;;;;;;6161179;28;80840;-68
2022/04/09 08:58:44;;;;;;;32.22;12.07;;;24.00;44.20;;;;;;6147957;28;83029;-66
2022/04/09 09:01:45;;;;;;;53.08;24.13;;;24.00;43.90;;;;;;6133582;28;83992;-67
2022/04/09 09:04:45;;;;;;;63.22;26.83;;;24.10;43.60;;;;;;6157304;28;83042;-66
2022/04/09 09:07:46;;;;;;;58.25;27.27;;;24.00;43.40;;;;;;6157460;28;83400;-67
2022/04/09 09:10:47;;;;;;;72.82;31.08;;;24.00;43.10;;;;;;6157315;28;84843;-67
2022/04/09 09:13:47;;;;;;;81.03;33.08;;;24.00;42.90;;;;;;6140419;28;82849;-66
2022/04/09 09:16:48;;;;;;;84.95;36.75;;;24.00;42.80;;;;;;6132888;28;83318;-65
2022/04/09 09:19:50;;;;;;;82.95;35.15;;;24.00;42.80;;;;;;6147954;28;84737;-75
2022/04/09 09:22:50;;;;;;;65.00;30.45;;;24.00;42.80;;;;;;6139893;28;83190;-65
2022/04/09 09:25:51;;;;;;;61.00;28.38;;;24.00;42.50;;;;;;6144815;28;83137;-65
2022/04/09 09:28:51;;;;;;;63.13;26.77;;;24.00;43.00;;;;;;6156395;28;83334;-65
2022/04/09 09:31:52;;;;;;;60.97;23.67;;;24.00;43.40;;;;;;6156663;28;83107;-65
2022/04/09 09:34:53;;;;;;;54.88;21.60;;;24.00;44.10;;;;;;6136858;28;84216;-65
2022/04/09 09:37:53;;;;;;;49.90;24.25;;;24.10;44.40;;;;;;6145850;28;83268;-64
2022/04/09 09:40:54;;;;;;;50.47;21.45;;;24.10;45.30;;;;;;6130830;28;84441;-65
2022/04/09 09:43:55;;;;;;;46.88;20.10;;;24.10;45.60;;;;;;6141271;28;83081;-64
2022/04/09 09:46:55;;;;;;;49.85;20.63;;;24.20;46.30;;;;;;6162555;28;82925;-66
2022/04/09 09:49:56;;;;;;;45.17;19.65;;;24.20;46.80;;;;;;6149170;28;83886;-65
2022/04/09 09:52:57;;;;;;;44.92;18.58;;;24.20;46.50;;;;;;6115790;28;85888;-66
2022/04/09 09:55:59;;;;;;;46.67;20.02;;;24.20;47.00;;;;;;6139263;28;85770;-66
2022/04/09 09:59:06;;;;;;;31.05;13.98;;;24.20;46.60;;;;;;6191392;27;75290;-66
2022/04/09 10:02:06;;;;;;;32.00;12.95;;;24.20;45.80;;;;;;6153402;28;82926;-65
2022/04/09 10:05:07;;;;;;;25.38;12.70;;;24.10;45.00;;;;;;6151762;28;84301;-66
2022/04/09 10:08:08;;;;;;;25.35;11.30;;;24.10;44.50;;;;;;6152542;28;83173;-66
2022/04/09 10:11:08;;;;;;;21.08;10.30;;;24.20;44.10;;;;;;6151776;28;83795;-67
2022/04/09 10:14:10;;;;;;;18.42;8.85;;;24.10;43.90;;;;;;6151715;28;83685;-66
2022/04/09 10:17:10;;;;;;;22.75;9.50;;;24.10;43.80;;;;;;6155453;28;84500;-67
2022/04/09 10:20:11;;;;;;;22.10;9.10;;;24.20;43.80;;;;;;6155632;28;80283;-66
2022/04/09 10:23:13;;;;;;;19.30;8.52;;;24.20;44.30;;;;;;6155399;28;82097;-65
2022/04/09 10:26:14;;;;;;;20.52;8.80;;;24.20;44.50;;;;;;6155153;28;80571;-66
2022/04/09 10:29:15;;;;;;;18.65;8.52;;;24.20;44.90;;;;;;6154896;28;81931;-65
2022/04/09 10:32:15;;;;;;;18.88;7.72;;;24.30;45.50;;;;;;6153738;28;82440;-77
2022/04/09 10:35:16;;;;;;;15.88;7.65;;;24.20;45.20;;;;;;6155002;28;81581;-72
2022/04/09 10:38:16;;;;;;;13.23;6.78;;;24.20;45.00;;;;;;6153451;28;83317;-65
2022/04/09 10:41:17;;;;;;;15.75;6.93;;;24.20;45.00;;;;;;6152888;28;80421;-65
2022/04/09 10:44:18;;;;;;;11.82;5.75;;;24.20;45.20;;;;;;6149296;28;80534;-66
2022/04/09 10:47:18;;;;;;;14.68;7.28;;;24.30;45.30;;;;;;6152131;28;80598;-65
2022/04/09 10:50:19;;;;;;;9.43;5.55;;;24.30;45.20;;;;;;6146286;28;80507;-63
2022/04/09 10:53:19;;;;;;;10.07;5.63;;;24.30;45.00;;;;;;6152142;28;81253;-64
2022/04/09 10:56:27;;;;;;;11.70;5.30;;;24.20;45.40;;;;;;6149286;28;81996;-66
2022/04/09 10:59:28;;;;;;;10.98;5.57;;;24.30;45.20;;;;;;6154097;28;81139;-65
2022/04/09 11:02:28;;;;;;;9.10;4.45;;;24.30;45.30;;;;;;6140627;28;80650;-64
2022/04/09 11:05:29;;;;;;;10.63;4.65;;;24.30;45.70;;;;;;6130109;28;85603;-64
2022/04/09 11:08:29;;;;;;;11.20;5.55;;;24.30;45.70;;;;;;6131627;28;80623;-66
2022/04/09 11:11:30;;;;;;;9.18;4.63;;;24.30;45.40;;;;;;6127413;28;80568;-66
2022/04/09 11:14:30;;;;;;;13.60;4.57;;;24.30;45.20;;;;;;6135287;28;80473;-65
2022/04/09 11:17:31;;;;;;;10.07;4.60;;;24.30;45.10;;;;;;6129639;28;80997;-64
2022/04/09 11:20:32;;;;;;;9.93;4.47;;;24.30;45.10;;;;;;6131464;28;80304;-66
2022/04/09 11:23:32;;;;;;;7.07;4.28;;;24.30;44.80;;;;;;6137297;28;81056;-70
2022/04/09 11:26:33;;;;;;;8.88;4.38;;;24.30;44.70;;;;;;6136189;28;81021;-72
2022/04/09 11:29:34;;;;;;;7.72;4.45;;;24.30;44.50;;;;;;6135921;28;81418;-70
2022/04/09 11:32:35;;;;;;;13.32;4.75;;;24.30;44.20;;;;;;6135082;28;80563;-66
2022/04/09 11:35:36;;;;;;;9.02;4.30;;;24.30;44.20;;;;;;6134831;28;81887;-75
2022/04/09 11:38:37;;;;;;;8.77;4.80;;;24.40;44.20;;;;;;6134818;28;80854;-68
2022/04/09 11:41:37;;;;;;;9.32;4.47;;;24.30;44.30;;;;;;6135542;28;80780;-67
2022/04/09 11:44:41;;;;;;;7.20;4.05;;;24.30;44.20;;;;;;6133594;28;80893;-66
2022/04/09 11:47:41;;;;;;;8.68;4.35;;;24.40;44.20;;;;;;6135295;28;80951;-66
2022/04/09 11:50:42;;;;;;;7.00;3.95;;;24.40;44.10;;;;;;6136040;28;80371;-67
2022/04/09 11:53:42;;;;;;;7.78;3.65;;;24.40;44.10;;;;;;6137773;28;80605;-68
2022/04/09 11:56:43;;;;;;;5.70;4.45;;;24.40;44.30;;;;;;6135527;28;80600;-66
2022/04/09 11:59:43;;;;;;;7.25;4.13;;;24.30;44.10;;;;;;6123196;28;81641;-64
2022/04/09 12:02:44;;;;;;;5.30;3.60;;;24.30;44.10;;;;;;6127761;28;87537;-66
2022/04/09 12:05:46;;;;;;;6.28;3.85;;;24.30;43.80;;;;;;6126536;28;80985;-68
2022/04/09 12:08:47;;;;;;;6.90;3.75;;;24.30;43.60;;;;;;6135513;28;81569;-67
2022/04/09 12:11:47;;;;;;;8.02;3.38;;;24.40;43.40;;;;;;6132232;28;80421;-67
2022/04/09 12:14:48;;;;;;;8.13;4.20;;;24.40;43.20;;;;;;6128099;28;80624;-67
2022/04/09 12:17:48;;;;;;;7.13;3.58;;;24.40;43.00;;;;;;6128554;28;82025;-68
2022/04/09 12:20:49;;;;;;;8.38;3.65;;;24.40;42.80;;;;;;6128374;28;86494;-65
2022/04/09 12:23:49;;;;;;;6.15;3.30;;;24.40;42.70;;;;;;6130535;28;80503;-66
2022/04/09 12:26:50;;;;;;;6.53;3.78;;;24.30;42.50;;;;;;6127643;28;80620;-66
2022/04/09 12:29:51;;;;;;;6.10;3.97;;;24.30;42.40;;;;;;6124110;28;81421;-66
2022/04/09 12:32:52;;;;;;;5.65;3.95;;;24.30;42.20;;;;;;6127402;28;80719;-65
2022/04/09 12:35:52;;;;;;;11.05;3.53;;;24.30;42.10;;;;;;6135605;28;80872;-65
2022/04/09 12:38:53;;;;;;;10.13;3.97;;;24.30;42.10;;;;;;6128114;28;80782;-66
2022/04/09 12:41:53;;;;;;;7.82;3.92;;;24.30;42.80;;;;;;6125790;28;81780;-67
2022/04/09 12:44:54;;;;;;;6.45;3.92;;;24.30;42.60;;;;;;6135070;28;87087;-66
2022/04/09 12:47:55;;;;;;;11.18;4.03;;;24.30;42.40;;;;;;6135152;28;80521;-66
2022/04/09 12:50:56;;;;;;;6.90;3.63;;;24.30;42.50;;;;;;6136721;28;81029;-67
2022/04/09 12:53:57;;;;;;;5.93;3.65;;;24.30;42.40;;;;;;6136038;28;80812;-67
2022/04/09 12:56:58;;;;;;;5.50;3.33;;;24.30;42.40;;;;;;6135200;28;80491;-67
2022/04/09 12:59:58;;;;;;;11.95;4.20;;;24.30;42.40;;;;;;6128126;28;81114;-66
2022/04/09 13:02:59;;;;;;;9.05;4.05;;;24.30;42.40;;;;;;6123321;28;81038;-65
2022/04/09 13:05:59;;;;;;;7.05;4.18;;;24.30;42.40;;;;;;6136336;28;80848;-66
2022/04/09 13:09:00;;;;;;;8.27;3.97;;;24.30;42.70;;;;;;6135192;28;81639;-67
2022/04/09 13:12:01;;;;;;;7.82;3.55;;;24.30;42.40;;;;;;6135751;28;81340;-78
2022/04/09 13:15:02;;;;;;;10.70;4.03;;;24.30;42.20;;;;;;6134581;28;82587;-65
2022/04/09 13:18:02;;;;;;;5.30;3.53;;;24.30;42.10;;;;;;6135453;28;81197;-66
2022/04/09 13:21:03;;;;;;;6.40;4.10;;;24.20;42.00;;;;;;6135643;28;80443;-66
2022/04/09 13:24:04;;;;;;;8.35;3.38;;;24.30;42.00;;;;;;6133881;28;81499;-66
2022/04/09 13:27:04;;;;;;;8.13;4.32;;;24.30;42.10;;;;;;6136103;28;80469;-66
2022/04/09 13:30:05;;;;;;;6.18;3.63;;;24.30;42.00;;;;;;6135892;28;81684;-67
2022/04/09 13:33:06;;;;;;;9.32;4.63;;;24.30;41.80;;;;;;6134778;28;82129;-66
2022/04/09 13:36:06;;;;;;;6.88;3.50;;;24.20;41.70;;;;;;6126413;28;80817;-66
2022/04/09 13:39:07;;;;;;;11.52;4.07;;;24.20;41.70;;;;;;6124321;28;80528;-66
2022/04/09 13:42:10;;;;;;;7.22;3.95;;;24.20;41.50;;;;;;6134105;28;80981;-67
2022/04/09 13:45:11;;;;;;;6.78;4.40;;;24.20;41.50;;;;;;6116681;28;80809;-67
2022/04/09 13:48:11;;;;;;;8.07;4.68;;;24.20;41.50;;;;;;6119827;28;80368;-67
2022/04/09 13:51:14;;;;;;;18.88;5.32;;;24.20;41.50;;;;;;6120032;28;81026;-67
2022/04/09 13:54:14;;;;;;;10.95;4.65;;;24.20;41.40;;;;;;6123065;28;81640;-75
2022/04/09 13:57:15;;;;;;;7.15;4.07;;;24.20;41.30;;;;;;6124517;28;82493;-67
2022/04/09 14:00:15;;;;;;;8.07;4.30;;;24.10;41.20;;;;;;6113994;28;82001;-73
2022/04/09 14:03:16;;;;;;;6.88;4.00;;;24.10;41.10;;;;;;6127158;28;80253;-64
2022/04/09 14:06:20;;;;;;;5.57;3.85;;;24.10;40.80;;;;;;6135171;28;80403;-63
2022/04/09 14:09:21;;;;;;;7.93;4.63;;;24.10;40.90;;;;;;6119476;28;80487;-67
2022/04/09 14:12:21;;;;;;;10.68;4.95;;;24.10;41.00;;;;;;6133611;28;81009;-68
2022/04/09 14:15:22;;;;;;;9.43;4.50;;;24.10;41.20;;;;;;6133537;28;80475;-66
2022/04/09 14:18:22;;;;;;;6.97;3.97;;;24.20;41.30;;;;;;6130891;28;80442;-66
2022/04/09 14:21:26;;;;;;;10.63;5.20;;;24.10;41.40;;;;;;6128569;28;81682;-67
2022/04/09 14:24:26;;;;;;;6.75;4.05;;;24.20;41.40;;;;;;6125935;28;80244;-67
2022/04/09 14:27:27;;;;;;;6.00;3.92;;;24.20;41.30;;;;;;6127565;28;81865;-64
2022/04/09 14:30:28;;;;;;;7.05;4.07;;;24.20;41.30;;;;;;6122818;28;80941;-70
2022/04/09 14:33:28;;;;;;;6.55;3.95;;;24.20;41.80;;;;;;6123976;28;81049;-68
2022/04/09 14:36:29;;;;;;;5.68;3.65;;;24.20;41.70;;;;;;6126304;28;80861;-66
2022/04/09 14:39:30;;;;;;;6.35;3.40;;;24.30;41.80;;;;;;6112429;28;81835;-66
2022/04/09 14:42:30;;;;;;;4.95;3.10;;;24.30;42.50;;;;;;6120506;28;80374;-63
2022/04/09 14:45:31;;;;;;;6.93;4.25;;;24.30;42.00;;;;;;6137592;28;82247;-64
2022/04/09 14:48:33;;;;;;;6.45;3.85;;;24.30;41.70;;;;;;6138501;28;80284;-69
2022/04/09 14:51:34;;;;;;;12.25;4.05;;;24.30;41.60;;;;;;6119147;28;81039;-68
2022/04/09 14:54:34;;;;;;;4.47;2.97;;;24.20;41.50;;;;;;6132563;28;81355;-64
2022/04/09 14:57:35;;;;;;;5.47;3.42;;;24.20;41.60;;;;;;6120326;28;80545;-64
2022/04/09 15:00:36;;;;;;;8.57;3.42;;;24.20;41.70;;;;;;6137952;28;80303;-64
2022/04/09 15:03:36;;;;;;;4.50;3.13;;;24.10;41.60;;;;;;6138515;28;80580;-65
2022/04/09 15:06:37;;;;;;;6.50;3.30;;;24.10;41.60;;;;;;6138047;28;80221;-65
2022/04/09 15:09:39;;;;;;;5.47;3.47;;;24.20;41.70;;;;;;6137874;28;80875;-65
2022/04/09 15:12:40;;;;;;;6.65;3.47;;;24.20;41.60;;;;;;6138687;28;80458;-64
2022/04/09 15:15:40;;;;;;;8.85;3.45;;;24.20;41.60;;;;;;6131173;28;80546;-65
2022/04/09 15:18:43;;;;;;;6.80;3.45;;;24.20;41.70;;;;;;6138194;28;80444;-65
2022/04/09 15:21:43;;;;;;;6.63;3.65;;;24.20;41.60;;;;;;6137493;28;80548;-65
2022/04/09 15:24:44;;;;;;;5.45;3.00;;;24.20;41.60;;;;;;6137305;28;80476;-64
2022/04/09 15:27:44;;;;;;;5.88;3.80;;;24.20;41.50;;;;;;6144426;28;80412;-64
2022/04/09 15:30:45;;;;;;;6.25;3.45;;;24.20;41.20;;;;;;6141990;28;80476;-64
2022/04/09 15:33:46;;;;;;;4.93;3.05;;;24.10;41.30;;;;;;6120830;28;80859;-63
2022/04/09 15:36:46;;;;;;;5.90;3.35;;;24.10;41.20;;;;;;6136991;28;81508;-65
2022/04/09 15:39:47;;;;;;;9.00;3.83;;;24.10;41.10;;;;;;6137314;28;80163;-65